KFBR

Fort Bridger Airport

Fort Bridger, Wyoming, USA
METAR KFBR 202015Z AUTO 25013G25KT 10SM SCT095 BKN120 26/01 A3022 RMK AO2 T02620010
Observed Flight Rules
Aug-20 @ 20:15 UTC (16 minutes ago) Visual Flight Rules
Wind Visibility Clouds
250° at 13 knots
 Gusting to 25 knots
10 miles
  • Scattered at 9,500' AGL
  • Broken at 12,000' AGL
Temperatures Readings
Current 26°C / 79°F
Dewpoint 1°C / 34°F
Humidity 20%
Altimeter 30.22" Hg
Pressure 1023 hPa
Elevation 2144
METAR KFBR 202015Z AUTO 25013G25KT 10SM SCT095 BKN120 26/01 A3022 RMK AO2 T02620010
Observed Flight Rules
Aug-20 @ 20:15 UTC
(16 minutes ago)
VFR
Wind Visibility
250° at 13 knots
 Gusting to 25 knots
10 miles
Clouds
  • Scattered at 9,500' AGL
  • Broken at 12,000' AGL
Temperature Dewpoint
26°C / 79°F 1°C / 34°F
Humidity Altimeter Pressure
20% 30.22" Hg 1023 hPa